Bookmark and Share
Track history (hours):
 

Viking Queen

More information available from US FCC via Universal Licensing System and Coast Guard Vessel Documentation Center.

Last reported at 2014-Apr-08 05:12 UTC. Time now 2014-Apr-17 18:28 UTC.
Position N 30°12' W 091°09'.
Warning: this ship's position is 9 days out of date.

Length 55 m; draft 3.2 m.

Type: Towing. MMSI: 366985050.

NotesDate/timePositionNaut miles runAvg speedWind from/ knotsBaromVisibWave heightAir tempDewpointWater temp
2014-Apr-08 05:12N 30°12' W 091°09'13 3.1
2014-Apr-08 01:05N 30°08' W 090°55'5 5.2
2014-Apr-08 00:09N 30°04' W 090°53'4 4.1
2014-Apr-07 23:06N 30°00' W 090°50'10 3.7
2014-Apr-07 20:30N 30°03' W 090°39'5 4.9
2014-Apr-07 19:33N 30°03' W 090°34'16 0.7
2014-Apr-06 20:28N 29°58' W 090°17'  
2014-Apr-04 12:17N 29°57' W 090°11'0 0.0
2014-Apr-04 11:24N 29°57' W 090°11'0 0.0
2014-Apr-04 10:32N 29°57' W 090°11'0 0.0
2014-Apr-04 07:33N 29°57' W 090°11'0 0.0
2014-Apr-04 06:20N 29°57' W 090°11'0 0.0
2014-Apr-04 05:31N 29°57' W 090°11'0 0.0
2014-Apr-04 04:30N 29°57' W 090°11'0 0.0
2014-Apr-03 13:21N 29°57' W 090°10'0 0.0
2014-Apr-03 12:29N 29°57' W 090°10'0 0.0
2014-Apr-03 09:19N 29°57' W 090°10'0 0.0
2014-Apr-03 08:19N 29°57' W 090°10'0 0.0
2014-Apr-03 07:26N 29°57' W 090°10'0 0.0
2014-Apr-03 06:26N 29°57' W 090°10'3 0.7
2014-Apr-03 01:12N 29°58' W 090°14'4 5.5
2014-Apr-03 00:32N 29°57' W 090°18'0 0.2
2014-Apr-02 23:33N 29°57' W 090°18'0 0.0
2014-Apr-02 22:33N 29°57' W 090°18'12 3.9
2014-Apr-02 19:32N 30°03' W 090°30'9 6.5
2014-Apr-02 18:05N 30°03' W 090°40'6 8.2
2014-Apr-02 17:22N 30°01' W 090°47'11 2.2
2014-Apr-02 12:30N 30°07' W 090°57'  

Dump ship's entire track history

sailing weather and tide predictions

Viking Queen — WDB9919 — position and weather